Time;durP1;ratioP1;P1;durP2;ratioP2;P2;SDS_P1;SDS_P2;PMS_P1;PMS_P2;Temp;Humidity;BMP_temperature;BMP_pressure;BME280_temperature;BME280_humidity;BME280_pressure;Samples;Min_cycle;Max_cycle;Signal;HPM_P1;HPM_P2
2021/03/07 00:01:27;;;;;;;12.20;7.90;;;-2.00;99.90;;;;;;4962164;28;20958;-90
2021/03/07 00:03:53;;;;;;;13.53;7.70;;;-2.00;99.90;;;;;;4967879;28;20543;-90
2021/03/07 00:06:33;;;;;;;17.40;7.93;;;-2.10;99.90;;;;;;4965919;28;20961;-90
2021/03/07 00:09:00;;;;;;;10.60;7.13;;;-2.00;99.90;;;;;;4967074;28;20985;-89
2021/03/07 00:11:26;;;;;;;12.50;7.50;;;-2.10;99.90;;;;;;4968029;28;20460;-89
2021/03/07 00:13:53;;;;;;;11.20;6.93;;;-2.00;99.90;;;;;;4971337;28;20452;-91
2021/03/07 00:16:19;;;;;;;10.03;6.80;;;-1.90;99.90;;;;;;4968251;28;20771;-90
2021/03/07 00:18:57;;;;;;;9.83;6.00;;;-2.10;99.90;;;;;;4974519;28;20446;-90
2021/03/07 00:21:27;;;;;;;13.73;6.60;;;-2.10;99.90;;;;;;4963102;28;20529;-88
2021/03/07 00:23:59;;;;;;;10.37;6.87;;;-1.60;99.90;;;;;;4970253;28;20447;-89
2021/03/07 00:26:29;;;;;;;12.23;6.93;;;-2.10;99.90;;;;;;4968254;28;20452;-91
2021/03/07 00:29:02;;;;;;;10.87;6.20;;;-2.10;99.90;;;;;;4961079;28;20460;-90
2021/03/07 00:31:29;;;;;;;13.53;6.23;;;;;;;;;;4963405;28;20939;-89
2021/03/07 00:33:58;;;;;;;13.20;7.23;;;-2.20;99.90;;;;;;4964453;28;21084;-91
2021/03/07 00:36:27;;;;;;;11.47;6.20;;;-2.40;99.90;;;;;;4965262;28;20479;-88
2021/03/07 00:38:54;;;;;;;13.37;6.60;;;-2.20;99.90;;;;;;4971198;28;20467;-91
2021/03/07 00:41:21;;;;;;;15.50;6.93;;;-2.20;99.90;;;;;;4968039;28;20518;-90
2021/03/07 00:43:50;;;;;;;17.77;8.53;;;-2.10;99.90;;;;;;4963709;28;20456;-90
2021/03/07 00:46:16;;;;;;;11.60;7.27;;;-2.40;99.90;;;;;;4963787;28;20471;-89
2021/03/07 00:48:54;;;;;;;13.57;6.73;;;-2.50;99.90;;;;;;4964604;28;20439;-91
2021/03/07 00:51:22;;;;;;;11.47;7.23;;;;;;;;;;4967656;28;20570;-90
2021/03/07 00:53:53;;;;;;;13.30;7.30;;;-2.40;99.90;;;;;;4965063;28;20489;-88
2021/03/07 00:56:24;;;;;;;12.40;6.50;;;-1.40;99.90;;;;;;4963085;28;20483;-90
2021/03/07 00:58:52;;;;;;;8.97;6.20;;;-2.80;99.90;;;;;;4966587;28;20477;-89
2021/03/07 01:01:28;;;;;;;8.97;6.40;;;0.00;99.90;;;;;;4966865;28;20464;-89
2021/03/07 01:03:55;;;;;;;10.03;6.27;;;;;;;;;;4961530;28;20435;-89
2021/03/07 01:06:21;;;;;;;13.07;6.97;;;-2.40;99.90;;;;;;4964495;28;20551;-89
2021/03/07 01:08:49;;;;;;;11.20;7.00;;;-2.50;99.90;;;;;;4965793;28;20458;-90
2021/03/07 01:11:16;;;;;;;16.50;7.67;;;-2.50;99.90;;;;;;4953387;29;20500;-90
2021/03/07 01:13:43;;;;;;;10.70;6.00;;;-2.50;99.90;;;;;;4953141;29;20791;-89
2021/03/07 01:16:09;;;;;;;15.67;7.23;;;-2.40;99.90;;;;;;4934375;28;20463;-91
2021/03/07 01:18:36;;;;;;;13.17;6.23;;;-2.40;99.90;;;;;;4974654;28;20452;-90
2021/03/07 01:21:03;;;;;;;14.03;6.40;;;-2.40;99.90;;;;;;4975109;28;20486;-89
2021/03/07 01:23:31;;;;;;;8.17;5.60;;;-2.40;99.90;;;;;;4973555;28;20452;-91
2021/03/07 01:25:59;;;;;;;9.00;5.70;;;-2.40;99.90;;;;;;4975007;28;20450;-89
2021/03/07 01:28:25;;;;;;;10.30;7.07;;;-2.50;99.90;;;;;;4975371;28;20459;-88
2021/03/07 01:30:52;;;;;;;11.80;6.67;;;-2.50;99.90;;;;;;4972198;28;20461;-89
2021/03/07 01:33:19;;;;;;;10.83;5.73;;;-2.50;99.90;;;;;;4974600;28;20512;-88
2021/03/07 01:35:45;;;;;;;12.00;6.80;;;-2.50;99.90;;;;;;4975290;28;20458;-89
2021/03/07 01:38:12;;;;;;;9.03;6.20;;;-2.50;99.90;;;;;;4975151;28;20454;-88
2021/03/07 01:40:45;;;;;;;9.60;6.50;;;-2.60;99.90;;;;;;4974843;28;20573;-89
2021/03/07 01:43:12;;;;;;;8.43;6.00;;;-2.60;99.90;;;;;;4973043;28;20501;-89
2021/03/07 01:45:39;;;;;;;13.83;7.23;;;-2.80;99.90;;;;;;4975205;28;20502;-89
2021/03/07 01:48:07;;;;;;;8.23;6.00;;;-2.60;99.90;;;;;;4978929;28;20499;-86
2021/03/07 01:50:35;;;;;;;8.73;6.20;;;-2.60;99.90;;;;;;4957297;29;20451;-89
2021/03/07 01:53:02;;;;;;;7.27;4.80;;;-2.60;99.90;;;;;;4954370;29;20449;-86
2021/03/07 01:55:30;;;;;;;7.87;5.43;;;-2.60;99.90;;;;;;4961982;29;20447;-88
2021/03/07 01:58:02;;;;;;;10.67;6.67;;;-2.70;99.90;;;;;;4952467;29;20494;-87
2021/03/07 02:00:29;;;;;;;10.37;6.23;;;-2.70;99.90;;;;;;4953465;29;20555;-89
2021/03/07 02:02:56;;;;;;;20.43;6.10;;;-2.70;99.90;;;;;;4952718;29;20454;-88
2021/03/07 02:05:24;;;;;;;7.37;6.37;;;-2.70;99.90;;;;;;4950524;29;20439;-88
2021/03/07 02:07:50;;;;;;;10.13;6.33;;;-2.80;99.90;;;;;;4953517;29;20463;-90
2021/03/07 02:10:18;;;;;;;11.60;5.90;;;-2.80;99.90;;;;;;4953547;29;20857;-87
2021/03/07 02:12:47;;;;;;;9.73;5.40;;;-2.80;99.90;;;;;;4953323;29;20538;-89
2021/03/07 02:15:14;;;;;;;8.87;5.90;;;-2.80;99.90;;;;;;4964893;28;20447;-89
2021/03/07 02:17:43;;;;;;;12.13;5.80;;;-2.80;99.90;;;;;;4974264;28;20465;-88
2021/03/07 02:20:11;;;;;;;7.50;5.37;;;-2.80;99.90;;;;;;4974245;28;20878;-89
2021/03/07 02:22:42;;;;;;;7.27;5.47;;;-2.80;99.90;;;;;;4967198;28;20464;-88
2021/03/07 02:25:12;;;;;;;7.70;5.27;;;-2.90;99.90;;;;;;4974427;28;20456;-89
2021/03/07 02:27:39;;;;;;;9.97;5.60;;;-2.90;99.90;;;;;;4970952;28;20830;-88
2021/03/07 02:30:09;;;;;;;9.80;5.70;;;-2.90;99.90;;;;;;4974241;28;20462;-88
2021/03/07 02:32:39;;;;;;;8.90;5.77;;;-2.90;99.90;;;;;;4974521;28;20871;-88
2021/03/07 02:35:08;;;;;;;11.03;6.03;;;-2.90;99.90;;;;;;4968033;28;20489;-90
2021/03/07 02:37:35;;;;;;;8.77;6.07;;;-2.90;99.90;;;;;;4974642;28;20549;-88
2021/03/07 02:40:03;;;;;;;10.37;6.50;;;-3.00;99.90;;;;;;4972638;28;20497;-89
2021/03/07 02:42:33;;;;;;;14.83;6.50;;;-2.90;99.90;;;;;;4972550;28;20968;-88
2021/03/07 02:45:06;;;;;;;15.80;6.57;;;-2.90;99.90;;;;;;4971937;28;20497;-89
2021/03/07 02:47:34;;;;;;;10.47;6.50;;;-2.90;99.90;;;;;;4972635;28;20446;-89
2021/03/07 02:50:07;;;;;;;7.90;5.80;;;-2.90;99.90;;;;;;4973697;28;20450;-88
2021/03/07 02:52:35;;;;;;;12.13;6.30;;;-3.00;99.90;;;;;;4974904;28;20463;-90
2021/03/07 02:55:03;;;;;;;10.20;6.13;;;-2.90;99.90;;;;;;4972632;28;20482;-90
2021/03/07 02:57:32;;;;;;;8.53;5.67;;;-2.90;99.90;;;;;;4974156;28;20480;-88
2021/03/07 02:59:59;;;;;;;8.23;5.63;;;-3.00;99.90;;;;;;4974121;28;20505;-89
2021/03/07 03:02:29;;;;;;;11.47;6.90;;;-3.00;99.90;;;;;;4970905;28;20485;-88
2021/03/07 03:04:58;;;;;;;7.30;5.30;;;-3.00;99.90;;;;;;4973615;28;20905;-89
2021/03/07 03:07:26;;;;;;;7.70;5.63;;;-3.00;99.90;;;;;;4971397;28;20798;-88
2021/03/07 03:09:54;;;;;;;8.57;5.97;;;-3.00;99.90;;;;;;4974207;28;20463;-89
2021/03/07 03:12:21;;;;;;;13.23;5.53;;;-3.00;99.90;;;;;;4974233;28;20515;-89
2021/03/07 03:14:49;;;;;;;7.83;5.53;;;-3.00;99.90;;;;;;4972594;28;20452;-90
2021/03/07 03:17:16;;;;;;;8.57;5.47;;;-3.10;99.90;;;;;;4984372;28;20446;-88
2021/03/07 03:19:45;;;;;;;9.73;5.27;;;-3.10;99.90;;;;;;4974262;28;20466;-88
2021/03/07 03:22:12;;;;;;;8.03;5.57;;;-3.10;99.90;;;;;;4973869;28;20452;-88
2021/03/07 03:24:38;;;;;;;9.50;5.93;;;-3.10;99.90;;;;;;4974061;28;20478;-88
2021/03/07 03:27:06;;;;;;;8.07;6.33;;;-3.10;99.90;;;;;;4968863;28;20475;-89
2021/03/07 03:29:33;;;;;;;9.13;5.67;;;-3.10;99.90;;;;;;4970659;28;20843;-90
2021/03/07 03:32:01;;;;;;;9.07;5.40;;;-3.10;99.90;;;;;;4974272;28;20455;-89
2021/03/07 03:34:27;;;;;;;8.20;5.83;;;-3.00;99.90;;;;;;4974981;28;20879;-89
2021/03/07 03:36:54;;;;;;;6.70;4.90;;;;;;;;;;4977596;28;20460;-89
2021/03/07 03:39:22;;;;;;;9.50;6.53;;;-3.20;99.90;;;;;;4977499;28;20454;-90
2021/03/07 03:41:51;;;;;;;10.50;7.20;;;-3.30;99.90;;;;;;4979552;28;20462;-89
2021/03/07 03:44:21;;;;;;;10.00;6.87;;;-3.30;99.90;;;;;;4973970;28;20956;-89
2021/03/07 03:46:51;;;;;;;13.10;7.40;;;-3.30;99.90;;;;;;4977347;28;20446;-89
2021/03/07 03:49:24;;;;;;;8.97;6.40;;;-3.40;99.90;;;;;;4976915;28;20465;-88
2021/03/07 03:51:56;;;;;;;8.40;6.00;;;-3.30;99.90;;;;;;4974332;28;20454;-89
2021/03/07 03:54:23;;;;;;;7.23;5.53;;;-3.40;99.90;;;;;;4977492;28;20502;-90
2021/03/07 03:56:51;;;;;;;12.23;6.53;;;-3.40;99.90;;;;;;4975145;28;20500;-90
2021/03/07 03:59:20;;;;;;;9.30;6.77;;;-3.40;99.90;;;;;;4976945;28;20890;-88
2021/03/07 04:01:48;;;;;;;10.30;6.80;;;-3.50;99.90;;;;;;4943643;28;20447;-89
2021/03/07 04:04:15;;;;;;;10.83;6.70;;;-3.40;99.90;;;;;;4975718;28;20467;-89
2021/03/07 04:06:43;;;;;;;8.20;6.30;;;-3.50;99.90;;;;;;4978015;28;20451;-88
2021/03/07 04:09:10;;;;;;;9.90;6.63;;;-3.50;99.90;;;;;;4978889;28;20451;-89
2021/03/07 04:11:37;;;;;;;8.57;6.47;;;-3.40;99.90;;;;;;4988932;28;20445;-87
2021/03/07 04:14:04;;;;;;;9.60;6.30;;;-3.50;99.90;;;;;;4988327;28;20954;-90
2021/03/07 04:16:31;;;;;;;9.10;5.63;;;-3.50;99.90;;;;;;4981623;28;20457;-90
2021/03/07 04:18:58;;;;;;;10.63;7.00;;;-3.50;99.90;;;;;;4980720;28;20446;-90
2021/03/07 04:21:27;;;;;;;7.90;6.53;;;-3.50;99.90;;;;;;4982730;28;20892;-89
2021/03/07 04:23:58;;;;;;;14.53;6.80;;;-3.50;99.90;;;;;;4982616;28;20455;-90
2021/03/07 04:26:25;;;;;;;8.40;5.63;;;-3.50;99.90;;;;;;4980722;28;20454;-91
2021/03/07 04:28:53;;;;;;;8.00;5.53;;;-3.50;99.90;;;;;;4979025;28;20516;-90
2021/03/07 04:31:22;;;;;;;9.80;6.60;;;-3.50;99.90;;;;;;4979034;28;20489;-91
2021/03/07 04:33:49;;;;;;;7.63;5.93;;;-3.60;99.90;;;;;;4975154;28;20532;-88
2021/03/07 04:36:17;;;;;;;10.93;7.20;;;-3.60;99.90;;;;;;4979267;28;20821;-89
2021/03/07 04:38:43;;;;;;;9.03;6.77;;;-3.60;99.90;;;;;;4980887;28;20449;-88
2021/03/07 04:41:13;;;;;;;7.80;5.77;;;-3.60;99.90;;;;;;4978733;28;20522;-89
2021/03/07 04:43:49;;;;;;;9.23;6.40;;;-3.40;99.90;;;;;;4980122;28;20462;-88
2021/03/07 04:46:17;;;;;;;12.83;5.80;;;-3.60;99.90;;;;;;4989757;28;20482;-90
2021/03/07 04:48:45;;;;;;;11.60;6.53;;;-3.00;99.90;;;;;;4982302;28;20465;-91
2021/03/07 04:51:11;;;;;;;14.27;7.10;;;-3.60;99.90;;;;;;4980262;28;20492;-90
2021/03/07 04:53:37;;;;;;;10.00;6.73;;;-3.50;99.90;;;;;;4980403;28;20470;-90
2021/03/07 04:56:06;;;;;;;8.73;6.53;;;-3.70;99.90;;;;;;4974677;28;20490;-90
2021/03/07 04:58:37;;;;;;;9.93;6.80;;;-3.50;99.90;;;;;;4978355;28;20903;-91
2021/03/07 05:01:04;;;;;;;7.10;5.37;;;-3.60;99.90;;;;;;4979977;28;20496;-91
2021/03/07 05:03:32;;;;;;;9.73;5.33;;;-3.70;99.90;;;;;;4974980;28;20454;-91
2021/03/07 05:06:00;;;;;;;7.03;4.97;;;-3.50;99.90;;;;;;4978048;28;20490;-90
2021/03/07 05:08:27;;;;;;;11.40;6.73;;;-3.50;99.90;;;;;;4979832;28;20529;-90
2021/03/07 05:10:54;;;;;;;9.17;6.57;;;-3.60;99.90;;;;;;4974098;28;20466;-88
2021/03/07 05:13:20;;;;;;;8.50;6.40;;;-3.50;99.90;;;;;;4977551;28;20435;-89
2021/03/07 05:15:48;;;;;;;9.20;7.10;;;-3.70;99.90;;;;;;4979783;28;20466;-91
2021/03/07 05:18:16;;;;;;;10.63;7.80;;;;;;;;;;4979361;28;20449;-91
2021/03/07 05:20:43;;;;;;;8.57;6.40;;;-3.60;99.90;;;;;;4978939;28;20498;-89
2021/03/07 05:23:09;;;;;;;9.83;5.90;;;-3.50;99.90;;;;;;4975755;28;20493;-89
2021/03/07 05:25:36;;;;;;;10.30;5.70;;;-3.40;99.90;;;;;;4977509;28;20922;-88
2021/03/07 05:28:04;;;;;;;9.40;6.03;;;-3.40;99.90;;;;;;4977302;28;20487;-91
2021/03/07 05:30:31;;;;;;;9.90;5.87;;;-3.40;99.90;;;;;;4974213;28;20453;-90
2021/03/07 05:32:59;;;;;;;7.17;5.63;;;-3.40;99.90;;;;;;4978430;28;20944;-90
2021/03/07 05:35:26;;;;;;;10.47;6.93;;;-3.30;99.90;;;;;;4978867;28;20454;-90
2021/03/07 05:37:53;;;;;;;10.07;7.30;;;-3.30;99.90;;;;;;4978570;28;20530;-90
2021/03/07 05:40:19;;;;;;;12.60;8.43;;;-3.40;99.90;;;;;;4975190;28;21065;-90
2021/03/07 05:42:46;;;;;;;11.00;6.97;;;-3.50;99.90;;;;;;4973687;28;20448;-89
2021/03/07 05:45:13;;;;;;;11.57;7.37;;;-3.40;99.90;;;;;;4975392;28;20456;-88
2021/03/07 05:47:40;;;;;;;9.03;6.30;;;-3.60;99.90;;;;;;4975182;28;20458;-89
2021/03/07 05:50:09;;;;;;;10.07;7.00;;;-3.50;99.90;;;;;;4972827;28;20822;-91
2021/03/07 05:52:36;;;;;;;11.43;6.90;;;-3.50;99.90;;;;;;4972041;28;20474;-89
2021/03/07 05:55:04;;;;;;;8.97;6.07;;;-3.60;99.90;;;;;;4971885;28;20440;-91
2021/03/07 05:57:31;;;;;;;9.87;6.23;;;-3.50;99.90;;;;;;4974182;28;20485;-90
2021/03/07 06:00:01;;;;;;;8.20;6.23;;;-3.50;99.90;;;;;;4973224;28;20489;-89
2021/03/07 06:02:27;;;;;;;10.53;6.37;;;-3.50;99.90;;;;;;4973230;28;20433;-90
2021/03/07 06:04:54;;;;;;;7.10;4.97;;;-3.50;99.90;;;;;;4974310;28;20439;-90
2021/03/07 06:07:24;;;;;;;12.70;6.13;;;-3.50;99.90;;;;;;4970424;28;20981;-90
2021/03/07 06:10:10;;;;;;;12.67;6.57;;;-3.50;99.90;;;;;;4973427;28;20454;-89
2021/03/07 06:12:37;;;;;;;7.67;6.00;;;-3.50;99.90;;;;;;4976978;28;20513;-89
2021/03/07 06:15:05;;;;;;;9.07;6.77;;;-3.40;99.90;;;;;;4981859;28;20445;-88
2021/03/07 06:17:39;;;;;;;10.33;6.40;;;-3.20;99.90;;;;;;4878358;29;20464;-90
2021/03/07 06:20:07;;;;;;;7.53;5.43;;;-3.10;99.90;;;;;;4877369;29;20493;-89
2021/03/07 06:22:37;;;;;;;13.43;7.73;;;-3.00;99.90;;;;;;4878048;29;20561;-89
2021/03/07 06:25:05;;;;;;;9.00;6.33;;;-2.80;99.90;;;;;;4875562;29;20459;-89
2021/03/07 06:27:31;;;;;;;7.43;5.93;;;-2.70;99.90;;;;;;4886568;29;20527;-90
2021/03/07 06:30:05;;;;;;;5.93;5.30;;;-2.50;99.90;;;;;;4885266;29;20462;-90
2021/03/07 06:32:33;;;;;;;10.20;6.67;;;-2.50;99.90;;;;;;4877458;29;20451;-90
2021/03/07 06:35:00;;;;;;;8.40;6.23;;;-2.30;99.90;;;;;;4876918;29;21008;-88
2021/03/07 06:37:26;;;;;;;8.60;6.30;;;-2.00;99.90;;;;;;4877447;29;20511;-91
2021/03/07 06:39:54;;;;;;;7.40;5.93;;;-1.50;99.90;;;;;;4877390;29;20499;-90
2021/03/07 06:42:20;;;;;;;15.47;9.53;;;-1.50;99.90;;;;;;4936119;28;20461;-89
2021/03/07 06:44:59;;;;;;;14.00;9.07;;;-1.40;99.90;;;;;;4972802;28;20511;-88
2021/03/07 06:47:25;;;;;;;10.00;6.80;;;-1.10;99.90;;;;;;4974592;28;20462;-90
2021/03/07 06:50:08;;;;;;;8.50;6.47;;;-1.00;99.90;;;;;;4973212;28;20458;-88
2021/03/07 06:52:34;;;;;;;8.43;6.87;;;-0.90;99.90;;;;;;4971908;28;20488;-89
2021/03/07 06:55:05;;;;;;;9.00;7.10;;;-0.70;99.90;;;;;;4974082;28;20897;-89
2021/03/07 06:57:32;;;;;;;10.67;6.90;;;-0.50;99.90;;;;;;4973877;28;20474;-89
2021/03/07 06:59:58;;;;;;;12.17;6.60;;;-0.30;99.90;;;;;;4971936;28;20489;-87
2021/03/07 07:02:24;;;;;;;11.43;7.60;;;0.00;99.90;;;;;;4973559;28;20451;-88
2021/03/07 07:04:51;;;;;;;8.40;6.33;;;0.20;99.90;;;;;;4972447;28;20485;-89
2021/03/07 07:07:19;;;;;;;12.90;9.17;;;0.40;99.90;;;;;;4973916;28;20462;-87
2021/03/07 07:09:47;;;;;;;10.30;8.43;;;0.70;99.90;;;;;;4973975;28;20517;-87
2021/03/07 07:12:23;;;;;;;8.03;7.20;;;0.70;99.90;;;;;;4976899;28;20503;-88
2021/03/07 07:14:50;;;;;;;10.03;7.40;;;0.70;99.90;;;;;;4976679;28;20793;-87
2021/03/07 07:17:18;;;;;;;9.53;7.40;;;0.70;99.90;;;;;;4976394;28;20457;-87
2021/03/07 07:19:46;;;;;;;9.40;7.50;;;0.90;99.90;;;;;;4964002;28;20434;-88
2021/03/07 07:22:17;;;;;;;9.47;7.20;;;1.20;99.90;;;;;;4965407;28;20450;-88
2021/03/07 07:24:48;;;;;;;8.00;6.77;;;1.40;99.90;;;;;;4967663;28;20453;-89
2021/03/07 07:27:14;;;;;;;8.83;7.27;;;;;;;;;;4962808;28;20498;-87
2021/03/07 07:29:42;;;;;;;14.67;11.57;;;2.10;99.90;;;;;;4957636;29;20443;-87
2021/03/07 07:32:14;;;;;;;24.77;18.37;;;3.00;99.90;;;;;;4954296;28;20947;-87
2021/03/07 07:34:47;;;;;;;21.77;13.80;;;3.40;99.10;;;;;;4974054;28;20438;-88
2021/03/07 07:37:22;;;;;;;12.83;8.70;;;3.90;98.70;;;;;;4976621;28;20501;-90
2021/03/07 07:39:55;;;;;;;8.50;7.63;;;4.30;97.60;;;;;;4983310;28;20552;-87
2021/03/07 07:42:25;;;;;;;12.30;8.60;;;4.90;96.50;;;;;;4979825;28;20447;-87
2021/03/07 07:44:54;;;;;;;11.30;9.63;;;5.50;95.40;;;;;;4927536;28;20913;-88
2021/03/07 07:47:21;;;;;;;18.03;9.00;;;5.20;95.10;;;;;;4976363;28;20504;-87
2021/03/07 07:49:50;;;;;;;48.93;10.37;;;5.80;94.30;;;;;;4970829;28;20459;-88
2021/03/07 07:52:36;;;;;;;8.73;7.80;;;6.00;93.80;;;;;;4969713;28;20864;-88
2021/03/07 07:55:11;;;;;;;9.47;8.43;;;5.70;93.60;;;;;;4976071;28;20442;-87
2021/03/07 07:57:50;;;;;;;9.53;8.10;;;6.10;93.00;;;;;;4971753;28;20473;-89
2021/03/07 08:00:23;;;;;;;8.20;7.40;;;6.20;92.40;;;;;;4967950;28;20493;-89
2021/03/07 08:02:52;;;;;;;9.40;8.10;;;6.20;92.60;;;;;;4968919;28;20447;-89
2021/03/07 08:05:49;;;;;;;11.03;8.07;;;6.40;92.30;;;;;;4966165;28;20451;-89
2021/03/07 08:08:29;;;;;;;10.07;7.87;;;6.70;92.50;;;;;;4961609;28;20450;-89
2021/03/07 08:10:55;;;;;;;9.20;8.30;;;7.50;90.60;;;;;;4973415;28;20450;-90
2021/03/07 08:13:47;;;;;;;9.30;8.10;;;7.70;90.70;;;;;;4976483;28;20453;-90
2021/03/07 08:16:41;;;;;;;10.40;9.30;;;7.20;90.80;;;;;;4948902;28;20460;-89
2021/03/07 08:19:15;;;;;;;9.97;8.90;;;7.80;89.40;;;;;;4970306;28;21083;-89
2021/03/07 08:22:03;;;;;;;10.20;9.20;;;7.70;90.50;;;;;;4973766;28;20493;-90
2021/03/07 08:24:55;;;;;;;13.17;11.87;;;8.10;88.50;;;;;;4972978;28;20486;-90
2021/03/07 08:27:33;;;;;;;16.10;14.40;;;8.20;87.50;;;;;;4973202;28;20546;-89
2021/03/07 08:29:59;;;;;;;13.43;12.03;;;7.90;89.40;;;;;;4968672;28;20446;-90
2021/03/07 08:32:29;;;;;;;10.83;9.00;;;8.00;89.00;;;;;;4975815;28;20462;-90
2021/03/07 08:35:13;;;;;;;10.63;9.53;;;7.10;88.90;;;;;;4972315;28;20450;-91
2021/03/07 08:38:03;;;;;;;9.73;8.73;;;6.50;91.20;;;;;;4973970;28;20458;-92
2021/03/07 08:40:34;;;;;;;12.13;9.50;;;6.60;91.20;;;;;;4975207;28;20498;-86
2021/03/07 08:43:33;;;;;;;27.57;22.63;;;6.60;91.80;;;;;;4971019;28;20450;-88
2021/03/07 08:46:01;;;;;;;41.60;24.40;;;5.90;92.10;;;;;;4987710;28;20476;-87
2021/03/07 08:48:28;;;;;;;10.50;9.17;;;5.50;93.50;;;;;;4981926;28;20478;-86
2021/03/07 08:50:55;;;;;;;9.00;7.73;;;6.00;93.40;;;;;;4971083;28;20509;-84
2021/03/07 08:53:23;;;;;;;10.23;9.13;;;6.90;92.20;;;;;;4975462;28;20525;-86
2021/03/07 08:55:50;;;;;;;11.07;9.97;;;8.30;90.40;;;;;;4975381;28;20458;-84
2021/03/07 08:58:17;;;;;;;11.03;9.10;;;9.10;87.10;;;;;;4974924;28;20945;-83
2021/03/07 09:00:45;;;;;;;30.23;25.47;;;9.20;86.90;;;;;;4974698;28;20497;-84
2021/03/07 09:03:12;;;;;;;14.93;8.80;;;9.40;84.90;;;;;;4973707;28;20458;-83
2021/03/07 09:05:40;;;;;;;10.20;9.20;;;9.60;84.70;;;;;;4975410;28;20543;-84
2021/03/07 09:08:06;;;;;;;10.47;9.37;;;10.40;79.20;;;;;;4975200;28;20454;-84
2021/03/07 09:10:35;;;;;;;9.50;8.50;;;10.40;80.00;;;;;;4974788;28;20462;-83
2021/03/07 09:13:09;;;;;;;10.53;9.27;;;10.30;78.60;;;;;;4978106;28;20472;-82
2021/03/07 09:15:37;;;;;;;10.20;9.20;;;9.80;79.30;;;;;;4974450;28;20540;-84
2021/03/07 09:18:05;;;;;;;11.40;9.93;;;10.20;80.80;;;;;;4973691;28;21204;-87
2021/03/07 09:20:47;;;;;;;10.57;9.57;;;10.60;80.00;;;;;;4974670;28;20808;-89
2021/03/07 09:23:35;;;;;;;10.10;9.20;;;10.80;78.70;;;;;;4974654;28;20553;-89
2021/03/07 09:26:05;;;;;;;10.80;9.70;;;10.50;79.10;;;;;;4974682;28;20533;-88
2021/03/07 09:28:38;;;;;;;10.23;9.10;;;10.40;79.80;;;;;;4975348;28;20462;-89
2021/03/07 09:31:07;;;;;;;10.93;9.83;;;11.10;79.00;;;;;;4975702;28;20454;-91
2021/03/07 09:33:34;;;;;;;10.87;9.77;;;10.30;79.30;;;;;;4974454;28;20457;-88
2021/03/07 09:36:03;;;;;;;11.53;10.40;;;10.30;80.50;;;;;;4974377;28;20481;-86
2021/03/07 09:38:43;;;;;;;10.40;9.40;;;10.90;80.20;;;;;;4974326;28;20450;-85
2021/03/07 09:41:10;;;;;;;10.20;9.20;;;11.70;78.30;;;;;;4974267;28;20872;-88
2021/03/07 09:43:37;;;;;;;11.53;8.57;;;11.80;76.10;;;;;;4974464;28;20816;-89
2021/03/07 09:46:04;;;;;;;12.13;10.40;;;12.00;82.60;;;;;;4974439;28;20454;-90
2021/03/07 09:48:32;;;;;;;11.63;10.47;;;12.20;75.50;;;;;;4973322;28;20438;-86
2021/03/07 09:51:02;;;;;;;11.37;10.17;;;10.90;77.10;;;;;;4974250;28;20454;-90
2021/03/07 09:53:31;;;;;;;10.73;9.60;;;10.20;79.00;;;;;;4974017;28;20525;-87
2021/03/07 09:55:57;;;;;;;9.80;8.80;;;10.00;82.60;;;;;;4972085;28;20446;-87
2021/03/07 09:58:34;;;;;;;11.40;10.30;;;10.10;82.80;;;;;;4973888;28;20453;-86
2021/03/07 10:01:04;;;;;;;11.07;9.97;;;10.70;82.30;;;;;;4969609;28;20645;-86
2021/03/07 10:03:32;;;;;;;10.83;9.73;;;11.10;81.10;;;;;;4969363;28;20454;-86
2021/03/07 10:06:07;;;;;;;10.73;9.63;;;12.70;76.90;;;;;;4973758;28;20462;-87
2021/03/07 10:08:35;;;;;;;12.87;11.53;;;12.90;75.80;;;;;;4971818;28;20838;-88
2021/03/07 10:11:19;;;;;;;11.67;10.43;;;13.40;73.70;;;;;;4973436;28;20465;-85
2021/03/07 10:13:56;;;;;;;6.33;5.00;;;11.80;74.60;;;;;;4973864;28;20545;-86
2021/03/07 10:16:25;;;;;;;10.43;8.93;;;10.10;76.60;;;;;;4973868;28;20454;-86
2021/03/07 10:19:09;;;;;;;10.80;9.37;;;9.40;84.30;;;;;;4972620;28;20913;-86
2021/03/07 10:21:37;;;;;;;11.00;9.73;;;9.60;84.80;;;;;;4971792;28;20548;-84
2021/03/07 10:24:09;;;;;;;10.60;9.50;;;12.00;84.10;;;;;;4973744;28;20461;-86
2021/03/07 10:26:36;;;;;;;12.13;9.77;;;11.50;79.20;;;;;;4971146;28;20446;-85
2021/03/07 10:29:08;;;;;;;11.13;10.03;;;12.40;75.90;;;;;;4973708;28;20564;-87
2021/03/07 10:31:34;;;;;;;11.27;10.10;;;12.40;75.30;;;;;;4969937;28;20810;-87
2021/03/07 10:34:01;;;;;;;11.90;10.20;;;12.50;76.00;;;;;;4972813;28;20450;-87
2021/03/07 10:36:27;;;;;;;12.20;10.90;;;13.20;76.30;;;;;;4970819;28;20454;-86
2021/03/07 10:39:10;;;;;;;16.97;13.10;;;13.50;72.60;;;;;;4973607;28;20481;-86
2021/03/07 10:41:37;;;;;;;15.43;12.80;;;12.70;73.40;;;;;;4977035;28;20493;-87
2021/03/07 10:44:06;;;;;;;11.80;10.60;;;12.70;73.50;;;;;;4976747;28;20557;-87
2021/03/07 10:46:35;;;;;;;14.33;10.73;;;13.20;73.50;;;;;;4974838;28;20458;-88
2021/03/07 10:49:03;;;;;;;10.90;9.90;;;13.00;73.50;;;;;;4976024;28;20460;-86
2021/03/07 10:51:30;;;;;;;13.50;10.40;;;13.60;74.20;;;;;;4977232;28;20520;-87
2021/03/07 10:53:57;;;;;;;12.30;11.10;;;14.00;72.30;;;;;;4974835;28;20450;-87
2021/03/07 10:56:28;;;;;;;11.10;10.00;;;13.00;72.80;;;;;;4977402;28;20486;-86
2021/03/07 10:58:55;;;;;;;10.67;9.40;;;13.10;71.60;;;;;;4978853;28;20454;-85
2021/03/07 11:01:24;;;;;;;10.93;9.83;;;13.20;71.50;;;;;;4984495;28;20593;-85
2021/03/07 11:03:50;;;;;;;11.07;10.00;;;13.60;71.50;;;;;;4982873;28;20465;-87
2021/03/07 11:06:19;;;;;;;11.70;10.50;;;13.50;70.90;;;;;;4977288;28;20564;-85
2021/03/07 11:08:46;;;;;;;12.10;10.83;;;13.90;71.90;;;;;;4977098;28;20524;-86
2021/03/07 11:11:12;;;;;;;12.13;10.93;;;14.40;68.80;;;;;;4977407;28;20453;-85
2021/03/07 11:13:40;;;;;;;13.03;9.53;;;13.70;70.70;;;;;;4977482;28;20446;-86
2021/03/07 11:16:07;;;;;;;11.03;9.93;;;14.00;70.90;;;;;;4977767;28;20450;-87
2021/03/07 11:18:34;;;;;;;12.13;10.93;;;13.80;68.80;;;;;;4975456;28;20759;-86
2021/03/07 11:21:00;;;;;;;10.80;9.80;;;14.20;66.30;;;;;;4977105;28;20501;-86
2021/03/07 11:23:27;;;;;;;10.33;9.33;;;13.80;69.00;;;;;;4976639;28;20468;-86
2021/03/07 11:25:53;;;;;;;11.83;10.53;;;13.70;67.90;;;;;;4977163;28;20454;-86
2021/03/07 11:28:20;;;;;;;11.80;10.00;;;13.60;68.30;;;;;;4977575;28;20457;-86
2021/03/07 11:30:47;;;;;;;11.70;10.50;;;14.10;67.10;;;;;;4977571;28;20445;-87
2021/03/07 11:33:13;;;;;;;11.37;10.27;;;14.30;65.40;;;;;;4978577;28;20446;-87
2021/03/07 11:35:39;;;;;;;11.97;10.77;;;14.30;69.30;;;;;;4977562;28;20458;-87
2021/03/07 11:38:06;;;;;;;10.97;9.87;;;14.70;67.30;;;;;;4977111;28;20506;-87
2021/03/07 11:40:32;;;;;;;11.40;10.27;;;14.40;65.00;;;;;;4977610;28;20497;-86
2021/03/07 11:42:59;;;;;;;11.30;9.77;;;14.20;66.60;;;;;;4978313;28;20450;-86
2021/03/07 11:45:25;;;;;;;11.00;9.60;;;14.40;64.80;;;;;;4977269;28;20468;-85
2021/03/07 11:47:52;;;;;;;14.60;10.33;;;13.90;66.10;;;;;;4977464;28;20462;-87
2021/03/07 11:50:19;;;;;;;11.27;9.70;;;13.90;66.60;;;;;;4978895;28;20509;-87
2021/03/07 11:52:45;;;;;;;10.60;9.47;;;14.20;66.00;;;;;;4978598;28;20941;-87
2021/03/07 11:55:12;;;;;;;11.67;10.40;;;14.00;67.10;;;;;;4979776;28;20565;-88
2021/03/07 11:57:39;;;;;;;13.23;10.90;;;13.60;66.70;;;;;;4978943;28;20473;-89
2021/03/07 12:00:07;;;;;;;11.13;10.03;;;13.70;66.80;;;;;;4979231;28;20473;-88
2021/03/07 12:02:35;;;;;;;11.50;10.33;;;14.20;67.20;;;;;;4976868;28;20450;-89
2021/03/07 12:05:04;;;;;;;10.83;9.73;;;14.50;70.20;;;;;;4977488;28;20484;-85
2021/03/07 12:07:31;;;;;;;11.27;9.80;;;13.90;65.50;;;;;;4977228;28;20481;-87
2021/03/07 12:09:57;;;;;;;10.67;9.57;;;14.20;66.80;;;;;;4979174;28;20478;-86
2021/03/07 12:12:24;;;;;;;10.33;9.33;;;13.90;64.70;;;;;;4977277;28;20465;-85
2021/03/07 12:14:50;;;;;;;10.23;9.23;;;13.70;66.30;;;;;;4976955;28;21008;-87
2021/03/07 12:17:16;;;;;;;13.90;12.50;;;13.00;65.30;;;;;;4976580;28;20454;-86
2021/03/07 12:19:43;;;;;;;13.80;9.13;;;12.80;66.20;;;;;;4975472;28;20533;-88
2021/03/07 12:22:10;;;;;;;10.27;8.83;;;13.40;68.20;;;;;;4976843;28;20482;-86
2021/03/07 12:24:36;;;;;;;10.40;9.40;;;13.40;66.40;;;;;;4976408;28;20466;-88
2021/03/07 12:27:05;;;;;;;10.90;9.80;;;13.30;65.10;;;;;;4975909;28;20454;-86
2021/03/07 12:29:32;;;;;;;10.23;9.20;;;13.20;67.10;;;;;;4975904;28;20453;-86
2021/03/07 12:31:59;;;;;;;11.43;9.47;;;12.90;67.30;;;;;;4975917;28;20729;-86
2021/03/07 12:34:25;;;;;;;10.00;8.93;;;13.70;67.30;;;;;;4974728;28;20469;-86
2021/03/07 12:36:51;;;;;;;11.03;9.93;;;13.80;66.10;;;;;;4975943;28;20463;-88
2021/03/07 12:39:19;;;;;;;10.57;8.80;;;13.70;65.60;;;;;;4975576;28;20453;-88
2021/03/07 12:41:45;;;;;;;11.10;9.03;;;13.10;65.80;;;;;;4974584;28;20497;-89
2021/03/07 12:44:12;;;;;;;12.33;9.03;;;12.70;66.20;;;;;;4974691;28;20473;-91
2021/03/07 12:46:38;;;;;;;9.73;8.73;;;12.60;70.00;;;;;;4974269;28;20446;-92
2021/03/07 12:49:06;;;;;;;10.10;9.03;;;13.50;68.00;;;;;;4975632;28;20450;-90
2021/03/07 12:51:33;;;;;;;10.67;9.67;;;14.00;66.80;;;;;;4976509;28;20978;-89
2021/03/07 12:53:59;;;;;;;10.03;8.80;;;14.00;64.60;;;;;;4974012;28;20950;-88